createdAt,value
2019-02-12T00:01:56.933Z,5.33
2019-02-12T00:04:46.894Z,8.05
2019-02-12T00:07:37.047Z,17.85
2019-02-12T00:10:26.863Z,8.83
2019-02-12T00:13:17.003Z,3.60
2019-02-12T00:16:07.169Z,5.42
2019-02-12T00:18:57.126Z,5.78
2019-02-12T00:21:47.020Z,10.90
2019-02-12T00:24:37.047Z,5.90
2019-02-12T00:27:26.794Z,13.28
2019-02-12T00:30:16.795Z,8.28
2019-02-12T00:33:06.575Z,6.55
2019-02-12T00:35:56.568Z,5.47
2019-02-12T00:38:46.205Z,6.03
2019-02-12T00:41:36.312Z,17.20
2019-02-12T00:44:26.316Z,10.60
2019-02-12T00:47:16.373Z,8.98
2019-02-12T00:50:06.549Z,7.78
2019-02-12T00:52:56.452Z,8.75
2019-02-12T00:55:46.366Z,11.20
2019-02-12T00:58:37.254Z,6.67
2019-02-12T01:01:27.195Z,16.00
2019-02-12T01:04:17.194Z,8.40
2019-02-12T01:07:06.885Z,8.50
2019-02-12T01:09:56.561Z,5.45
2019-02-12T01:12:46.524Z,5.37
2019-02-12T01:15:36.833Z,21.27
2019-02-12T01:18:27.049Z,4.80
2019-02-12T01:21:16.502Z,5.20
2019-02-12T01:24:06.087Z,12.50
2019-02-12T01:26:56.275Z,13.05
2019-02-12T01:29:46.276Z,5.78
2019-02-12T01:32:36.415Z,7.37
2019-02-12T01:35:26.141Z,19.92
2019-02-12T01:38:16.023Z,10.28
2019-02-12T01:41:06.197Z,4.70
2019-02-12T01:43:56.476Z,5.28
2019-02-12T01:46:46.397Z,12.93
2019-02-12T01:49:36.579Z,14.93
2019-02-12T01:52:26.703Z,3.95
2019-02-12T01:55:16.203Z,8.58
2019-02-12T01:58:05.896Z,7.65
2019-02-12T02:00:55.741Z,6.20
2019-02-12T02:03:45.752Z,6.83
2019-02-12T02:06:35.752Z,5.85
2019-02-12T02:09:25.535Z,7.50
2019-02-12T02:12:15.374Z,6.25
2019-02-12T02:15:05.662Z,6.80
2019-02-12T02:17:55.087Z,4.97
2019-02-12T02:20:45.234Z,5.97
2019-02-12T02:23:34.932Z,10.08
2019-02-12T02:26:25.197Z,4.87
2019-02-12T02:29:15.013Z,6.58
2019-02-12T02:32:07.724Z,3.75
2019-02-12T02:34:57.444Z,7.45
2019-02-12T02:37:47.185Z,5.85
2019-02-12T02:40:37.185Z,9.63
2019-02-12T02:43:26.977Z,7.50
2019-02-12T02:46:16.646Z,14.68
2019-02-12T02:49:06.418Z,5.40
2019-02-12T02:51:56.393Z,11.68
2019-02-12T02:54:46.423Z,7.55
2019-02-12T02:57:36.385Z,2.90
2019-02-12T03:00:26.056Z,4.62
2019-02-12T03:03:15.707Z,8.20
2019-02-12T03:06:05.539Z,6.95
2019-02-12T03:08:55.376Z,9.90
2019-02-12T03:11:45.316Z,7.72
2019-02-12T03:14:35.555Z,5.20
2019-02-12T03:17:25.277Z,9.20
2019-02-12T03:20:15.224Z,9.10
2019-02-12T03:23:05.128Z,14.45
2019-02-12T03:25:55.283Z,8.33
2019-02-12T03:28:45.295Z,5.55
2019-02-12T03:31:35.409Z,6.72
2019-02-12T03:34:25.153Z,10.58
2019-02-12T03:37:15.413Z,7.75
2019-02-12T03:40:05.852Z,9.13
2019-02-12T03:42:55.525Z,5.20
2019-02-12T03:45:45.777Z,10.98
2019-02-12T03:48:35.927Z,12.68
2019-02-12T03:51:25.846Z,13.50
2019-02-12T03:54:15.842Z,15.15
2019-02-12T03:57:05.656Z,5.42
2019-02-12T03:59:55.656Z,11.25
2019-02-12T04:03:03.296Z,11.60
2019-02-12T04:05:53.613Z,13.55
2019-02-12T04:08:43.571Z,10.15
2019-02-12T04:11:33.238Z,11.18
2019-02-12T04:14:22.813Z,9.40
2019-02-12T04:17:12.412Z,14.30
2019-02-12T04:20:03.095Z,8.20
2019-02-12T04:22:53.140Z,11.15
2019-02-12T04:25:42.875Z,12.23
2019-02-12T04:28:36.760Z,4.58
2019-02-12T04:31:26.255Z,6.22
2019-02-12T04:34:16.623Z,10.50
2019-02-12T04:37:06.949Z,10.30
2019-02-12T04:39:56.807Z,12.35
2019-02-12T04:42:46.666Z,6.35
2019-02-12T04:45:36.763Z,10.88
2019-02-12T04:48:26.629Z,10.45
2019-02-12T04:51:16.634Z,15.05
2019-02-12T04:54:07.824Z,9.18
2019-02-12T04:56:57.633Z,13.65
2019-02-12T04:59:47.483Z,13.20
2019-02-12T05:02:37.292Z,9.08
2019-02-12T05:05:27.073Z,8.63
2019-02-12T05:08:16.853Z,9.13
2019-02-12T05:11:06.705Z,14.38
2019-02-12T05:13:56.528Z,19.05
2019-02-12T05:16:46.467Z,10.32
2019-02-12T05:19:36.467Z,8.95
2019-02-12T05:22:26.332Z,8.35
2019-02-12T05:25:16.346Z,13.58
2019-02-12T05:28:06.122Z,11.55
2019-02-12T05:30:56.257Z,19.85
2019-02-12T05:33:46.117Z,12.65
2019-02-12T05:36:35.952Z,5.95
2019-02-12T05:39:25.573Z,14.58
2019-02-12T05:42:15.404Z,7.12
2019-02-12T05:45:05.496Z,10.03
2019-02-12T05:47:55.518Z,13.03
2019-02-12T05:50:45.507Z,11.55
2019-02-12T05:53:35.364Z,11.10
2019-02-12T05:56:25.281Z,15.85
2019-02-12T05:59:15.354Z,8.73
2019-02-12T06:02:04.969Z,14.35
2019-02-12T06:04:54.872Z,5.92
2019-02-12T06:07:44.805Z,15.38
2019-02-12T06:10:34.226Z,8.10
2019-02-12T06:13:24.034Z,5.95
2019-02-12T06:16:14.022Z,15.13
2019-02-12T06:19:03.886Z,11.03
2019-02-12T06:21:53.576Z,15.35
2019-02-12T06:24:43.535Z,11.60
2019-02-12T06:27:33.232Z,7.35
2019-02-12T06:30:23.333Z,14.50
2019-02-12T06:33:13.412Z,10.08
2019-02-12T06:36:03.613Z,9.35
2019-02-12T06:38:53.431Z,9.25
2019-02-12T06:41:43.356Z,7.33
2019-02-12T06:44:33.153Z,14.13
2019-02-12T06:47:22.920Z,9.73
2019-02-12T06:50:12.623Z,10.58
2019-02-12T06:53:02.012Z,6.95
2019-02-12T06:55:51.775Z,20.95
2019-02-12T06:58:41.697Z,7.47
2019-02-12T07:01:31.761Z,7.65
2019-02-12T07:04:25.125Z,10.80
2019-02-12T07:07:40.193Z,5.95
2019-02-12T07:10:35.113Z,8.73
2019-02-12T07:14:08.907Z,9.83
2019-02-12T07:17:33.935Z,10.40
2019-02-12T07:21:14.311Z,10.13
2019-02-12T07:24:38.906Z,12.68
2019-02-12T07:28:04.925Z,9.15
2019-02-12T07:31:44.990Z,8.23
2019-02-12T07:34:49.655Z,7.67
2019-02-12T07:38:15.848Z,12.63
2019-02-12T07:41:55.615Z,10.65
2019-02-12T07:45:22.046Z,10.60
2019-02-12T07:48:54.304Z,9.85
2019-02-12T07:52:31.095Z,15.63
2019-02-12T07:55:57.637Z,14.80
2019-02-12T07:59:46.720Z,22.20
2019-02-12T08:03:05.235Z,13.65
2019-02-12T08:06:05.525Z,14.68
2019-02-12T08:09:19.480Z,10.55
2019-02-12T08:12:35.527Z,19.57
2019-02-12T08:15:53.122Z,6.60
2019-02-12T08:19:30.046Z,17.40
2019-02-12T08:22:54.023Z,9.33
2019-02-12T08:25:56.603Z,9.25
2019-02-12T08:29:22.553Z,7.62
2019-02-12T08:32:29.777Z,5.92
2019-02-12T08:35:57.071Z,7.55
2019-02-12T08:39:37.650Z,11.12
2019-02-12T08:42:50.727Z,6.90
2019-02-12T08:46:30.026Z,9.03
2019-02-12T08:49:48.396Z,13.43
2019-02-12T08:53:07.332Z,14.10
2019-02-12T08:56:22.910Z,9.75
2019-02-12T08:59:43.513Z,7.15
2019-02-12T09:03:40.976Z,7.33
2019-02-12T09:07:26.843Z,9.05
2019-02-12T09:11:08.366Z,15.70
2019-02-12T09:14:18.185Z,6.67
2019-02-12T09:17:57.658Z,10.32
2019-02-12T09:21:43.626Z,5.95
2019-02-12T09:25:09.891Z,8.55
2019-02-12T09:28:16.434Z,6.87
2019-02-12T09:31:52.118Z,6.58
2019-02-12T09:35:12.817Z,5.00
2019-02-12T09:38:51.836Z,13.62
2019-02-12T09:42:10.078Z,7.92
2019-02-12T09:45:47.605Z,12.18
2019-02-12T09:49:09.353Z,11.12
2019-02-12T09:52:35.766Z,6.25
2019-02-12T09:55:34.917Z,5.50
2019-02-12T09:59:04.373Z,6.40
2019-02-12T10:02:18.938Z,8.03
2019-02-12T10:05:40.377Z,9.83
2019-02-12T10:09:09.869Z,6.78
2019-02-12T10:12:23.920Z,10.72
2019-02-12T10:15:37.996Z,6.87
2019-02-12T10:19:08.706Z,5.58
2019-02-12T10:22:42.516Z,6.47
2019-02-12T10:25:41.152Z,12.40
2019-02-12T10:29:14.336Z,12.43
2019-02-12T10:32:08.647Z,6.50
2019-02-12T10:34:54.418Z,17.30
2019-02-12T10:37:43.872Z,9.45
2019-02-12T10:40:33.677Z,11.05
2019-02-12T10:43:23.287Z,13.15
2019-02-12T10:46:13.491Z,4.35
2019-02-12T10:49:02.682Z,8.40
2019-02-12T10:51:52.564Z,10.65
2019-02-12T10:54:42.452Z,6.17
2019-02-12T10:57:32.103Z,6.67
2019-02-12T11:00:22.232Z,5.05
2019-02-12T11:03:12.387Z,14.90
2019-02-12T11:06:02.192Z,15.78
2019-02-12T11:08:52.072Z,6.08
2019-02-12T11:11:41.752Z,6.28
2019-02-12T11:14:31.574Z,9.28
2019-02-12T11:17:21.415Z,6.92
2019-02-12T11:20:11.609Z,3.90
2019-02-12T11:23:01.166Z,9.93
2019-02-12T11:25:50.814Z,14.38
2019-02-12T11:28:40.727Z,12.23
2019-02-12T11:31:30.792Z,8.28
2019-02-12T11:34:20.773Z,6.53
2019-02-12T11:37:10.632Z,8.08
2019-02-12T11:40:00.818Z,7.67
2019-02-12T11:42:50.604Z,9.58
2019-02-12T11:45:40.235Z,8.73
2019-02-12T11:48:29.916Z,13.95
2019-02-12T11:51:19.891Z,8.80
2019-02-12T11:54:09.753Z,9.70
2019-02-12T11:56:59.953Z,6.37
2019-02-12T11:59:49.956Z,8.85
2019-02-12T12:02:42.075Z,13.05
2019-02-12T12:05:31.327Z,9.48
2019-02-12T12:08:20.945Z,8.83
2019-02-12T12:11:10.966Z,7.03
2019-02-12T12:14:00.702Z,10.68
2019-02-12T12:16:50.736Z,10.90
2019-02-12T12:19:40.431Z,7.75
2019-02-12T12:22:30.420Z,7.53
2019-02-12T12:25:20.615Z,7.28
2019-02-12T12:28:10.763Z,10.28
2019-02-12T12:31:00.573Z,21.45
2019-02-12T12:33:50.452Z,9.75
2019-02-12T12:36:40.165Z,10.80
2019-02-12T12:39:29.938Z,7.40
2019-02-12T12:42:19.971Z,11.22
2019-02-12T12:45:10.753Z,22.48
2019-02-12T12:48:00.676Z,7.20
2019-02-12T12:50:50.619Z,11.08
2019-02-12T12:53:40.216Z,5.58
2019-02-12T12:56:30.112Z,9.48
2019-02-12T12:59:21.599Z,8.58
2019-02-12T13:02:11.241Z,7.53
2019-02-12T13:05:02.678Z,9.40
2019-02-12T13:07:53.974Z,6.78
2019-02-12T13:10:44.677Z,12.18
2019-02-12T13:13:34.664Z,6.03
2019-02-12T13:16:25.594Z,12.18
2019-02-12T13:19:16.336Z,11.43
2019-02-12T13:22:06.685Z,18.50
2019-02-12T13:24:56.210Z,9.08
2019-02-12T13:27:46.337Z,10.40
2019-02-12T13:30:36.414Z,12.00
2019-02-12T13:33:26.657Z,7.65
2019-02-12T13:36:16.907Z,7.85
2019-02-12T13:39:07.578Z,5.75
2019-02-12T13:41:57.872Z,7.58
2019-02-12T13:44:48.026Z,10.20
2019-02-12T13:47:38.235Z,7.58
2019-02-12T13:50:29.184Z,7.80
2019-02-12T13:53:19.455Z,9.00
2019-02-12T13:56:09.344Z,5.78
2019-02-12T13:58:59.395Z,7.78
2019-02-12T14:01:49.205Z,5.72
2019-02-12T14:04:39.274Z,6.05
2019-02-12T14:07:29.368Z,6.72
2019-02-12T14:10:19.311Z,4.60
2019-02-12T14:13:09.550Z,7.08
2019-02-12T14:15:59.445Z,11.30
2019-02-12T14:18:49.071Z,10.50
2019-02-12T14:21:38.883Z,16.57
2019-02-12T14:24:28.626Z,8.43
2019-02-12T14:27:18.735Z,5.05
2019-02-12T14:30:08.971Z,5.85
2019-02-12T14:33:00.012Z,6.60
2019-02-12T14:35:50.012Z,6.95
2019-02-12T14:38:40.231Z,8.08
2019-02-12T14:41:30.202Z,14.13
2019-02-12T14:44:20.071Z,6.75
2019-02-12T14:47:09.875Z,5.80
2019-02-12T14:49:59.755Z,9.80
2019-02-12T14:52:49.592Z,4.15
2019-02-12T14:55:39.493Z,12.60
2019-02-12T14:58:29.391Z,5.25
2019-02-12T15:01:19.284Z,6.03
2019-02-12T15:04:08.985Z,6.55
2019-02-12T15:06:58.944Z,7.30
2019-02-12T15:09:48.721Z,10.13
2019-02-12T15:12:38.381Z,8.63
2019-02-12T15:15:28.274Z,7.87
2019-02-12T15:18:18.232Z,5.08
2019-02-12T15:21:08.141Z,6.85
2019-02-12T15:23:58.401Z,5.47
2019-02-12T15:26:48.201Z,9.33
2019-02-12T15:29:38.304Z,4.40
2019-02-12T15:32:28.463Z,7.47
2019-02-12T15:35:18.283Z,8.28
2019-02-12T15:38:07.932Z,9.35
2019-02-12T15:40:58.155Z,6.20
2019-02-12T15:43:47.982Z,14.35
2019-02-12T15:46:39.177Z,7.42
2019-02-12T15:49:29.124Z,5.53
2019-02-12T15:52:18.795Z,5.15
2019-02-12T15:55:09.891Z,6.70
2019-02-12T15:58:00.884Z,4.53
2019-02-12T16:00:50.804Z,7.55
2019-02-12T16:03:40.364Z,5.62
2019-02-12T16:06:30.263Z,6.37
2019-02-12T16:09:20.233Z,9.45
2019-02-12T16:12:10.343Z,9.70
2019-02-12T16:15:01.594Z,7.53
2019-02-12T16:17:51.725Z,9.38
2019-02-12T16:20:41.792Z,7.30
2019-02-12T16:23:31.661Z,9.60
2019-02-12T16:26:21.884Z,8.08
2019-02-12T16:29:11.924Z,12.25
2019-02-12T16:32:01.537Z,9.43
2019-02-12T16:34:51.394Z,10.08
2019-02-12T16:37:41.381Z,7.10
2019-02-12T16:40:32.195Z,8.20
2019-02-12T16:43:21.882Z,9.63
2019-02-12T16:46:14.902Z,11.70
2019-02-12T16:49:05.125Z,8.00
2019-02-12T16:51:54.881Z,6.37
2019-02-12T16:54:44.873Z,12.93
2019-02-12T16:57:34.551Z,12.18
2019-02-12T17:00:24.504Z,9.20
2019-02-12T17:03:14.454Z,12.13
2019-02-12T17:06:04.444Z,13.48
2019-02-12T17:08:54.503Z,12.13
2019-02-12T17:11:44.342Z,10.65
2019-02-12T17:14:33.875Z,8.63
2019-02-12T17:17:23.502Z,16.45
2019-02-12T17:20:15.573Z,9.40
2019-02-12T17:23:05.554Z,15.43
2019-02-12T17:25:55.412Z,11.73
2019-02-12T17:28:45.191Z,13.08
2019-02-12T17:31:35.091Z,13.75
2019-02-12T17:34:25.064Z,13.35
2019-02-12T17:37:14.634Z,15.15
2019-02-12T17:40:04.892Z,11.63
2019-02-12T17:42:55.844Z,12.45
2019-02-12T17:45:49.792Z,17.55
2019-02-12T17:48:39.755Z,24.98
2019-02-12T17:51:29.633Z,15.25
2019-02-12T17:54:19.693Z,16.73
2019-02-12T17:57:09.543Z,15.00
2019-02-12T17:59:59.192Z,19.40
2019-02-12T18:02:49.155Z,14.30
2019-02-12T18:05:39.119Z,15.00
2019-02-12T18:08:29.188Z,16.20
2019-02-12T18:11:19.297Z,18.32
2019-02-12T18:14:09.486Z,19.55
2019-02-12T18:16:59.126Z,22.10
2019-02-12T18:19:48.994Z,21.37
2019-02-12T18:22:38.886Z,17.07
2019-02-12T18:25:29.015Z,19.42
2019-02-12T18:28:19.266Z,20.75
2019-02-12T18:31:09.075Z,23.65
2019-02-12T18:33:58.723Z,18.12
2019-02-12T18:36:48.413Z,20.30
2019-02-12T18:39:38.482Z,18.85
2019-02-12T18:42:28.512Z,18.32
2019-02-12T18:45:18.935Z,35.00
2019-02-12T18:48:08.945Z,18.82
2019-02-12T18:50:59.256Z,14.58
2019-02-12T18:53:48.717Z,27.22
2019-02-12T18:56:41.726Z,22.37
2019-02-12T18:59:30.554Z,16.15
2019-02-12T19:02:20.833Z,22.45
2019-02-12T19:05:10.537Z,22.73
2019-02-12T19:08:00.484Z,20.12
2019-02-12T19:10:51.286Z,17.65
2019-02-12T19:13:40.853Z,23.40
2019-02-12T19:16:30.846Z,17.27
2019-02-12T19:19:20.652Z,21.40
2019-02-12T19:22:10.647Z,17.02
2019-02-12T19:25:00.496Z,13.00
2019-02-12T19:27:50.495Z,24.40
2019-02-12T19:30:40.582Z,14.15
2019-02-12T19:33:30.743Z,14.80
2019-02-12T19:36:20.773Z,19.90
2019-02-12T19:39:10.937Z,17.17
2019-02-12T19:42:00.693Z,19.45
2019-02-12T19:44:50.616Z,22.60
2019-02-12T19:47:40.815Z,21.93
2019-02-12T19:50:30.484Z,20.17
2019-02-12T19:53:20.315Z,27.48
2019-02-12T19:56:09.965Z,18.62
2019-02-12T19:59:00.001Z,19.10
2019-02-12T20:01:50.115Z,20.48
2019-02-12T20:04:41.553Z,12.90
2019-02-12T20:07:31.343Z,23.83
2019-02-12T20:10:21.515Z,31.45
2019-02-12T20:13:11.207Z,17.15
2019-02-12T20:16:01.386Z,13.83
2019-02-12T20:18:52.368Z,18.27
2019-02-12T20:21:42.301Z,18.17
2019-02-12T20:24:32.047Z,22.27
2019-02-12T20:27:22.323Z,23.95
2019-02-12T20:30:13.563Z,22.15
2019-02-12T20:33:03.367Z,18.85
2019-02-12T20:35:53.373Z,19.05
2019-02-12T20:38:43.551Z,24.12
2019-02-12T20:41:33.275Z,23.60
2019-02-12T20:44:23.243Z,16.35
2019-02-12T20:47:13.247Z,26.10
2019-02-12T20:50:02.847Z,23.77
2019-02-12T20:52:52.685Z,15.43
2019-02-12T20:55:42.592Z,22.30
2019-02-12T20:58:32.442Z,20.10
2019-02-12T21:01:22.235Z,15.30
2019-02-12T21:04:11.915Z,20.37
2019-02-12T21:07:01.630Z,25.40
2019-02-12T21:09:51.693Z,19.60
2019-02-12T21:12:41.775Z,22.17
2019-02-12T21:15:31.687Z,22.85
2019-02-12T21:18:21.603Z,23.47
2019-02-12T21:21:11.205Z,17.60
2019-02-12T21:24:01.194Z,24.75
2019-02-12T21:26:50.964Z,19.05
2019-02-12T21:29:40.753Z,22.52
2019-02-12T21:32:32.208Z,18.77
2019-02-12T21:35:22.478Z,19.12
2019-02-12T21:38:15.820Z,20.88
2019-02-12T21:41:06.094Z,18.67
2019-02-12T21:43:56.790Z,20.00
2019-02-12T21:46:47.846Z,21.93
2019-02-12T21:49:38.614Z,14.20
2019-02-12T21:52:28.915Z,19.95
2019-02-12T21:55:18.468Z,17.75
2019-02-12T21:58:08.595Z,15.78
2019-02-12T22:00:59.586Z,19.50
2019-02-12T22:03:49.392Z,16.48
2019-02-12T22:06:38.998Z,14.33
2019-02-12T22:09:28.745Z,21.07
2019-02-12T22:12:18.779Z,13.58
2019-02-12T22:15:11.308Z,21.48
2019-02-12T22:18:01.542Z,21.52
2019-02-12T22:20:51.536Z,16.87
2019-02-12T22:23:41.515Z,17.35
2019-02-12T22:26:31.505Z,17.95
2019-02-12T22:29:21.295Z,14.95
2019-02-12T22:32:11.396Z,18.60
2019-02-12T22:35:01.390Z,20.48
2019-02-12T22:37:51.153Z,24.98
2019-02-12T22:40:41.313Z,16.55
2019-02-12T22:43:31.505Z,18.42
2019-02-12T22:46:21.483Z,22.37
2019-02-12T22:49:11.377Z,20.32
2019-02-12T22:52:01.156Z,21.07
2019-02-12T22:54:50.912Z,23.65
2019-02-12T22:57:48.590Z,23.42
2019-02-12T23:00:47.465Z,17.20
2019-02-12T23:03:38.975Z,20.92
2019-02-12T23:06:28.552Z,22.58
2019-02-12T23:09:19.526Z,24.52
2019-02-12T23:12:09.853Z,24.25
2019-02-12T23:14:59.989Z,28.27
2019-02-12T23:17:49.783Z,22.20
2019-02-12T23:20:39.922Z,22.95
2019-02-12T23:23:30.066Z,24.70
2019-02-12T23:26:19.871Z,19.10
2019-02-12T23:29:09.415Z,25.95
2019-02-12T23:32:00.501Z,25.20
2019-02-12T23:34:56.937Z,23.90
2019-02-12T23:37:41.911Z,29.85
2019-02-12T23:40:31.841Z,19.85
2019-02-12T23:43:22.555Z,25.10
2019-02-12T23:46:12.473Z,26.62
2019-02-12T23:49:02.455Z,17.62
2019-02-12T23:51:52.413Z,19.30
2019-02-12T23:54:42.232Z,17.82
2019-02-12T23:57:32.072Z,26.48
